CheckWX is a tool to help pilots better visualize weather data.  It is not intended as a substitute for an official pre-flight weather briefing.

19:27:17 UTC

GEML TAF
Melilla Airport
Melilla, Spain
TAF GEML 221400Z 2215/2315 09006KT 9999 FEW012 TX19/2313Z TN09/2307Z PROB40 TEMPO 2300/2308 3000 BR BKN005

Feb-22@
15:00 UTC

Feb-22 @ 15:00 UTC

Feb-23@
15:00 UTC

Feb-23 @ 15:00 UTC

TAF GEML 221400Z 2215/2315 09006KT 9999 FEW012 TX19/2313Z TN09/2307Z
Wind
  • 090° at 6 KTS
Cloud Levels
  • Few at 1,200' AGL

Feb-23@
00:00 UTC

Feb-23 @ 00:00 UTC

Feb-23@
08:00 UTC

Feb-23 @ 08:00 UTC

PROB40 TEMPO 2300/2308 3000 BR BKN005

Temporary - 40% Likelihood

Temporary - 40% Likelihood during this time.

Conditions
Mist
Cloud Levels
  • Broken at 500' AGL